sensor_id;sensor_type;location;lat;lon;timestamp;P1;durP1;ratioP1;P2;durP2;ratioP2
35223;SDS011;21367;51.930;8.112;2023-05-23T00:02:29;18.23;;;11.50;;
35223;SDS011;21367;51.930;8.112;2023-05-23T00:07:34;20.55;;;12.25;;
35223;SDS011;21367;51.930;8.112;2023-05-23T00:12:39;18.90;;;11.10;;
35223;SDS011;21367;51.930;8.112;2023-05-23T00:17:45;21.52;;;12.15;;
35223;SDS011;21367;51.930;8.112;2023-05-23T00:22:49;25.63;;;11.50;;
35223;SDS011;21367;51.930;8.112;2023-05-23T00:27:53;18.85;;;11.50;;
35223;SDS011;21367;51.930;8.112;2023-05-23T00:33:01;21.80;;;11.30;;
35223;SDS011;21367;51.930;8.112;2023-05-23T00:38:05;23.95;;;11.60;;
35223;SDS011;21367;51.930;8.112;2023-05-23T00:43:10;24.08;;;12.32;;
35223;SDS011;21367;51.930;8.112;2023-05-23T00:48:18;22.27;;;12.10;;
35223;SDS011;21367;51.930;8.112;2023-05-23T00:53:22;21.58;;;13.05;;
35223;SDS011;21367;51.930;8.112;2023-05-23T01:03:34;20.92;;;12.10;;
35223;SDS011;21367;51.930;8.112;2023-05-23T01:08:38;23.40;;;10.38;;
35223;SDS011;21367;51.930;8.112;2023-05-23T01:13:45;18.17;;;9.38;;
35223;SDS011;21367;51.930;8.112;2023-05-23T01:18:56;22.35;;;9.55;;
35223;SDS011;21367;51.930;8.112;2023-05-23T01:24:24;16.38;;;9.98;;
35223;SDS011;21367;51.930;8.112;2023-05-23T01:29:40;14.10;;;9.63;;
35223;SDS011;21367;51.930;8.112;2023-05-23T01:34:48;22.30;;;10.95;;
35223;SDS011;21367;51.930;8.112;2023-05-23T01:39:56;20.13;;;11.90;;
35223;SDS011;21367;51.930;8.112;2023-05-23T01:45:02;17.83;;;10.63;;
35223;SDS011;21367;51.930;8.112;2023-05-23T01:50:07;20.08;;;11.13;;
35223;SDS011;21367;51.930;8.112;2023-05-23T01:55:13;16.77;;;9.95;;
35223;SDS011;21367;51.930;8.112;2023-05-23T02:00:24;14.90;;;9.02;;
35223;SDS011;21367;51.930;8.112;2023-05-23T02:05:28;15.85;;;9.23;;
35223;SDS011;21367;51.930;8.112;2023-05-23T02:10:34;16.17;;;9.38;;
35223;SDS011;21367;51.930;8.112;2023-05-23T02:15:41;14.75;;;8.63;;
35223;SDS011;21367;51.930;8.112;2023-05-23T02:20:45;17.88;;;9.60;;
35223;SDS011;21367;51.930;8.112;2023-05-23T02:25:48;18.33;;;9.05;;
35223;SDS011;21367;51.930;8.112;2023-05-23T02:30:55;17.15;;;8.82;;
35223;SDS011;21367;51.930;8.112;2023-05-23T02:35:58;18.85;;;9.70;;
35223;SDS011;21367;51.930;8.112;2023-05-23T02:41:03;18.67;;;9.02;;
35223;SDS011;21367;51.930;8.112;2023-05-23T02:46:10;18.70;;;9.98;;
35223;SDS011;21367;51.930;8.112;2023-05-23T02:51:14;18.17;;;10.02;;
35223;SDS011;21367;51.930;8.112;2023-05-23T02:56:18;20.90;;;10.30;;
35223;SDS011;21367;51.930;8.112;2023-05-23T03:01:25;19.05;;;9.77;;
35223;SDS011;21367;51.930;8.112;2023-05-23T03:06:29;19.90;;;10.38;;
35223;SDS011;21367;51.930;8.112;2023-05-23T03:11:33;21.25;;;10.98;;
35223;SDS011;21367;51.930;8.112;2023-05-23T03:16:39;20.10;;;11.10;;
35223;SDS011;21367;51.930;8.112;2023-05-23T03:21:44;25.90;;;11.50;;
35223;SDS011;21367;51.930;8.112;2023-05-23T03:26:51;22.35;;;12.18;;
35223;SDS011;21367;51.930;8.112;2023-05-23T03:31:58;23.77;;;12.38;;
35223;SDS011;21367;51.930;8.112;2023-05-23T03:42:05;34.65;;;13.98;;
35223;SDS011;21367;51.930;8.112;2023-05-23T03:47:12;33.92;;;14.52;;
35223;SDS011;21367;51.930;8.112;2023-05-23T03:52:18;29.98;;;14.32;;
35223;SDS011;21367;51.930;8.112;2023-05-23T03:57:22;35.53;;;15.82;;
35223;SDS011;21367;51.930;8.112;2023-05-23T04:02:28;38.20;;;17.23;;
35223;SDS011;21367;51.930;8.112;2023-05-23T04:07:32;32.30;;;16.52;;
35223;SDS011;21367;51.930;8.112;2023-05-23T04:12:36;31.13;;;15.45;;
35223;SDS011;21367;51.930;8.112;2023-05-23T04:17:48;31.00;;;15.88;;
35223;SDS011;21367;51.930;8.112;2023-05-23T04:22:52;29.85;;;16.05;;
35223;SDS011;21367;51.930;8.112;2023-05-23T04:27:58;30.85;;;14.90;;
35223;SDS011;21367;51.930;8.112;2023-05-23T04:33:05;28.40;;;15.27;;
35223;SDS011;21367;51.930;8.112;2023-05-23T04:38:09;29.52;;;15.40;;
35223;SDS011;21367;51.930;8.112;2023-05-23T04:43:15;27.37;;;14.07;;
35223;SDS011;21367;51.930;8.112;2023-05-23T04:48:28;25.50;;;14.02;;
35223;SDS011;21367;51.930;8.112;2023-05-23T04:53:34;24.35;;;12.82;;
35223;SDS011;21367;51.930;8.112;2023-05-23T04:58:40;23.95;;;12.48;;
35223;SDS011;21367;51.930;8.112;2023-05-23T05:03:49;28.75;;;13.30;;
35223;SDS011;21367;51.930;8.112;2023-05-23T05:08:53;29.95;;;13.60;;
35223;SDS011;21367;51.930;8.112;2023-05-23T05:13:56;25.10;;;13.77;;
35223;SDS011;21367;51.930;8.112;2023-05-23T05:19:04;27.42;;;13.60;;
35223;SDS011;21367;51.930;8.112;2023-05-23T05:24:08;26.75;;;14.45;;
35223;SDS011;21367;51.930;8.112;2023-05-23T05:29:12;29.90;;;13.85;;
35223;SDS011;21367;51.930;8.112;2023-05-23T05:34:19;25.77;;;16.33;;
35223;SDS011;21367;51.930;8.112;2023-05-23T05:39:23;35.03;;;17.92;;
35223;SDS011;21367;51.930;8.112;2023-05-23T05:44:29;34.35;;;18.42;;
35223;SDS011;21367;51.930;8.112;2023-05-23T05:49:35;43.05;;;18.50;;
35223;SDS011;21367;51.930;8.112;2023-05-23T05:54:39;33.30;;;17.48;;
35223;SDS011;21367;51.930;8.112;2023-05-23T05:59:43;30.80;;;16.50;;
35223;SDS011;21367;51.930;8.112;2023-05-23T06:04:50;32.45;;;16.48;;
35223;SDS011;21367;51.930;8.112;2023-05-23T06:09:53;33.63;;;16.05;;
35223;SDS011;21367;51.930;8.112;2023-05-23T06:14:57;35.58;;;16.75;;
35223;SDS011;21367;51.930;8.112;2023-05-23T06:43:43;29.25;;;12.55;;
35223;SDS011;21367;51.930;8.112;2023-05-23T06:49:53;27.27;;;12.32;;
35223;SDS011;21367;51.930;8.112;2023-05-23T06:55:56;24.65;;;9.13;;
35223;SDS011;21367;51.930;8.112;2023-05-23T07:01:27;20.33;;;7.45;;
35223;SDS011;21367;51.930;8.112;2023-05-23T07:12:57;8.60;;;3.70;;
35223;SDS011;21367;51.930;8.112;2023-05-23T07:18:42;10.10;;;3.35;;
35223;SDS011;21367;51.930;8.112;2023-05-23T07:24:42;6.20;;;2.50;;
35223;SDS011;21367;51.930;8.112;2023-05-23T07:30:34;10.07;;;2.38;;
35223;SDS011;21367;51.930;8.112;2023-05-23T07:36:03;6.28;;;2.60;;
35223;SDS011;21367;51.930;8.112;2023-05-23T07:41:39;12.60;;;3.63;;
35223;SDS011;21367;51.930;8.112;2023-05-23T07:46:51;5.63;;;3.05;;
35223;SDS011;21367;51.930;8.112;2023-05-23T07:51:58;9.05;;;3.10;;
35223;SDS011;21367;51.930;8.112;2023-05-23T07:57:08;7.30;;;3.13;;
35223;SDS011;21367;51.930;8.112;2023-05-23T08:26:27;21.70;;;6.20;;
35223;SDS011;21367;51.930;8.112;2023-05-23T08:31:35;14.05;;;5.13;;
35223;SDS011;21367;51.930;8.112;2023-05-23T08:36:43;13.25;;;5.00;;
35223;SDS011;21367;51.930;8.112;2023-05-23T08:41:53;12.95;;;4.75;;
35223;SDS011;21367;51.930;8.112;2023-05-23T08:46:58;15.43;;;4.18;;
35223;SDS011;21367;51.930;8.112;2023-05-23T08:52:18;14.20;;;4.47;;
35223;SDS011;21367;51.930;8.112;2023-05-23T08:57:34;10.82;;;4.72;;
35223;SDS011;21367;51.930;8.112;2023-05-23T09:02:54;12.13;;;4.68;;
35223;SDS011;21367;51.930;8.112;2023-05-23T09:08:22;17.92;;;4.72;;
35223;SDS011;21367;51.930;8.112;2023-05-23T09:13:33;15.57;;;5.03;;
35223;SDS011;21367;51.930;8.112;2023-05-23T09:18:41;16.45;;;4.65;;
35223;SDS011;21367;51.930;8.112;2023-05-23T09:23:49;13.00;;;5.55;;
35223;SDS011;21367;51.930;8.112;2023-05-23T09:28:57;16.98;;;4.80;;
35223;SDS011;21367;51.930;8.112;2023-05-23T09:34:02;16.52;;;4.75;;
35223;SDS011;21367;51.930;8.112;2023-05-23T09:39:07;14.00;;;4.40;;
35223;SDS011;21367;51.930;8.112;2023-05-23T09:44:21;17.55;;;4.72;;
35223;SDS011;21367;51.930;8.112;2023-05-23T11:27:31;21.08;;;3.78;;
35223;SDS011;21367;51.930;8.112;2023-05-23T11:32:37;17.85;;;4.15;;
35223;SDS011;21367;51.930;8.112;2023-05-23T11:37:41;19.80;;;3.90;;
35223;SDS011;21367;51.930;8.112;2023-05-23T11:42:49;26.07;;;3.90;;
35223;SDS011;21367;51.930;8.112;2023-05-23T11:52:56;21.30;;;3.67;;
35223;SDS011;21367;51.930;8.112;2023-05-23T11:58:02;24.73;;;3.38;;
35223;SDS011;21367;51.930;8.112;2023-05-23T12:03:06;20.10;;;3.70;;
35223;SDS011;21367;51.930;8.112;2023-05-23T12:08:11;21.33;;;3.55;;
35223;SDS011;21367;51.930;8.112;2023-05-23T12:13:18;23.30;;;4.55;;
35223;SDS011;21367;51.930;8.112;2023-05-23T12:18:26;26.92;;;3.95;;
35223;SDS011;21367;51.930;8.112;2023-05-23T12:23:31;22.15;;;3.85;;
35223;SDS011;21367;51.930;8.112;2023-05-23T12:28:39;27.88;;;4.72;;
35223;SDS011;21367;51.930;8.112;2023-05-23T12:33:44;28.13;;;4.57;;
35223;SDS011;21367;51.930;8.112;2023-05-23T12:38:49;34.00;;;5.40;;
35223;SDS011;21367;51.930;8.112;2023-05-23T12:43:55;23.27;;;4.38;;
35223;SDS011;21367;51.930;8.112;2023-05-23T12:48:59;23.90;;;4.53;;
35223;SDS011;21367;51.930;8.112;2023-05-23T12:54:03;25.88;;;3.92;;
35223;SDS011;21367;51.930;8.112;2023-05-23T12:59:10;18.10;;;5.15;;
35223;SDS011;21367;51.930;8.112;2023-05-23T13:04:14;26.70;;;4.63;;
35223;SDS011;21367;51.930;8.112;2023-05-23T13:09:18;18.80;;;4.03;;
35223;SDS011;21367;51.930;8.112;2023-05-23T13:14:24;28.55;;;3.85;;
35223;SDS011;21367;51.930;8.112;2023-05-23T13:19:28;17.52;;;4.10;;
35223;SDS011;21367;51.930;8.112;2023-05-23T13:24:31;20.35;;;3.72;;
35223;SDS011;21367;51.930;8.112;2023-05-23T13:29:38;25.50;;;4.10;;
35223;SDS011;21367;51.930;8.112;2023-05-23T13:34:42;11.85;;;3.22;;
35223;SDS011;21367;51.930;8.112;2023-05-23T13:39:47;20.88;;;3.80;;
35223;SDS011;21367;51.930;8.112;2023-05-23T13:44:53;19.08;;;3.58;;
35223;SDS011;21367;51.930;8.112;2023-05-23T13:49:57;22.48;;;3.97;;
35223;SDS011;21367;51.930;8.112;2023-05-23T13:55:01;15.52;;;3.67;;
35223;SDS011;21367;51.930;8.112;2023-05-23T14:00:09;17.05;;;3.83;;
35223;SDS011;21367;51.930;8.112;2023-05-23T14:05:13;17.75;;;3.25;;
35223;SDS011;21367;51.930;8.112;2023-05-23T14:10:18;20.53;;;3.67;;
35223;SDS011;21367;51.930;8.112;2023-05-23T14:15:26;20.63;;;3.53;;
35223;SDS011;21367;51.930;8.112;2023-05-23T14:20:37;20.70;;;3.33;;
35223;SDS011;21367;51.930;8.112;2023-05-23T14:25:40;20.63;;;3.70;;
35223;SDS011;21367;51.930;8.112;2023-05-23T14:30:50;27.77;;;4.57;;
35223;SDS011;21367;51.930;8.112;2023-05-23T14:35:54;17.20;;;4.35;;
35223;SDS011;21367;51.930;8.112;2023-05-23T14:41:00;23.23;;;4.20;;
35223;SDS011;21367;51.930;8.112;2023-05-23T14:46:07;27.70;;;3.60;;
35223;SDS011;21367;51.930;8.112;2023-05-23T14:51:15;18.05;;;3.50;;
35223;SDS011;21367;51.930;8.112;2023-05-23T14:56:21;13.02;;;2.67;;
35223;SDS011;21367;51.930;8.112;2023-05-23T15:01:28;16.38;;;3.47;;
35223;SDS011;21367;51.930;8.112;2023-05-23T15:06:32;22.63;;;3.65;;
35223;SDS011;21367;51.930;8.112;2023-05-23T15:11:36;16.75;;;3.17;;
35223;SDS011;21367;51.930;8.112;2023-05-23T15:16:44;14.00;;;3.20;;
35223;SDS011;21367;51.930;8.112;2023-05-23T15:21:49;17.83;;;3.15;;
35223;SDS011;21367;51.930;8.112;2023-05-23T15:26:53;10.43;;;2.53;;
35223;SDS011;21367;51.930;8.112;2023-05-23T15:32:00;12.63;;;3.05;;
35223;SDS011;21367;51.930;8.112;2023-05-23T15:37:04;17.83;;;2.95;;
35223;SDS011;21367;51.930;8.112;2023-05-23T15:42:08;19.42;;;3.45;;
35223;SDS011;21367;51.930;8.112;2023-05-23T15:47:14;22.15;;;3.33;;
35223;SDS011;21367;51.930;8.112;2023-05-23T15:52:19;17.75;;;3.15;;
35223;SDS011;21367;51.930;8.112;2023-05-23T15:57:23;13.90;;;2.90;;
35223;SDS011;21367;51.930;8.112;2023-05-23T16:02:30;12.07;;;2.55;;
35223;SDS011;21367;51.930;8.112;2023-05-23T16:07:35;17.05;;;3.53;;
35223;SDS011;21367;51.930;8.112;2023-05-23T16:12:39;15.35;;;3.17;;
35223;SDS011;21367;51.930;8.112;2023-05-23T16:17:45;15.00;;;2.70;;
35223;SDS011;21367;51.930;8.112;2023-05-23T16:22:49;14.93;;;2.80;;
35223;SDS011;21367;51.930;8.112;2023-05-23T16:27:55;23.60;;;4.35;;
35223;SDS011;21367;51.930;8.112;2023-05-23T16:33:06;15.37;;;3.43;;
35223;SDS011;21367;51.930;8.112;2023-05-23T16:38:12;13.88;;;2.53;;
35223;SDS011;21367;51.930;8.112;2023-05-23T16:43:16;18.95;;;3.53;;
35223;SDS011;21367;51.930;8.112;2023-05-23T16:48:23;20.58;;;2.80;;
35223;SDS011;21367;51.930;8.112;2023-05-23T16:53:26;18.15;;;2.55;;
35223;SDS011;21367;51.930;8.112;2023-05-23T16:58:30;22.13;;;3.33;;
35223;SDS011;21367;51.930;8.112;2023-05-23T17:03:40;18.20;;;2.75;;
35223;SDS011;21367;51.930;8.112;2023-05-23T17:08:44;21.35;;;2.83;;
35223;SDS011;21367;51.930;8.112;2023-05-23T17:13:50;16.23;;;2.85;;
35223;SDS011;21367;51.930;8.112;2023-05-23T17:18:57;19.80;;;3.75;;
35223;SDS011;21367;51.930;8.112;2023-05-23T17:24:00;15.57;;;3.13;;
35223;SDS011;21367;51.930;8.112;2023-05-23T17:29:05;11.80;;;2.65;;
35223;SDS011;21367;51.930;8.112;2023-05-23T17:34:12;17.23;;;2.50;;
35223;SDS011;21367;51.930;8.112;2023-05-23T17:39:17;8.00;;;1.92;;
35223;SDS011;21367;51.930;8.112;2023-05-23T17:44:21;14.43;;;2.08;;
35223;SDS011;21367;51.930;8.112;2023-05-23T17:49:29;13.30;;;2.30;;
35223;SDS011;21367;51.930;8.112;2023-05-23T17:54:38;15.13;;;2.95;;
35223;SDS011;21367;51.930;8.112;2023-05-23T17:59:42;13.98;;;2.50;;
35223;SDS011;21367;51.930;8.112;2023-05-23T18:04:49;16.52;;;2.53;;
35223;SDS011;21367;51.930;8.112;2023-05-23T18:09:53;19.58;;;2.35;;
35223;SDS011;21367;51.930;8.112;2023-05-23T18:14:58;25.08;;;2.55;;
35223;SDS011;21367;51.930;8.112;2023-05-23T18:20:06;15.48;;;2.47;;
35223;SDS011;21367;51.930;8.112;2023-05-23T18:25:11;17.58;;;2.35;;
35223;SDS011;21367;51.930;8.112;2023-05-23T18:30:19;14.18;;;2.40;;
35223;SDS011;21367;51.930;8.112;2023-05-23T18:35:25;10.00;;;3.00;;
35223;SDS011;21367;51.930;8.112;2023-05-23T18:40:31;19.08;;;2.63;;
35223;SDS011;21367;51.930;8.112;2023-05-23T18:45:35;20.13;;;2.72;;
35223;SDS011;21367;51.930;8.112;2023-05-23T18:50:42;22.63;;;2.72;;
35223;SDS011;21367;51.930;8.112;2023-05-23T18:55:46;25.60;;;2.67;;
35223;SDS011;21367;51.930;8.112;2023-05-23T19:00:50;16.95;;;2.88;;
35223;SDS011;21367;51.930;8.112;2023-05-23T19:05:57;21.95;;;3.78;;
35223;SDS011;21367;51.930;8.112;2023-05-23T19:11:02;22.95;;;3.00;;
35223;SDS011;21367;51.930;8.112;2023-05-23T19:16:07;22.73;;;2.47;;
35223;SDS011;21367;51.930;8.112;2023-05-23T19:21:14;21.77;;;3.10;;
35223;SDS011;21367;51.930;8.112;2023-05-23T19:26:18;19.17;;;2.67;;
35223;SDS011;21367;51.930;8.112;2023-05-23T19:31:26;28.30;;;4.23;;
35223;SDS011;21367;51.930;8.112;2023-05-23T19:36:32;27.02;;;3.30;;
35223;SDS011;21367;51.930;8.112;2023-05-23T19:41:36;19.70;;;2.58;;
35223;SDS011;21367;51.930;8.112;2023-05-23T19:46:41;18.88;;;2.60;;
35223;SDS011;21367;51.930;8.112;2023-05-23T19:51:48;27.08;;;2.95;;
35223;SDS011;21367;51.930;8.112;2023-05-23T19:56:52;21.98;;;3.03;;
35223;SDS011;21367;51.930;8.112;2023-05-23T20:01:57;18.88;;;2.88;;
35223;SDS011;21367;51.930;8.112;2023-05-23T20:07:04;23.15;;;2.45;;
35223;SDS011;21367;51.930;8.112;2023-05-23T20:12:09;16.48;;;2.33;;
35223;SDS011;21367;51.930;8.112;2023-05-23T20:17:13;25.15;;;2.85;;
35223;SDS011;21367;51.930;8.112;2023-05-23T20:22:19;19.35;;;2.88;;
35223;SDS011;21367;51.930;8.112;2023-05-23T20:27:23;27.45;;;3.47;;
35223;SDS011;21367;51.930;8.112;2023-05-23T20:32:26;14.30;;;2.28;;
35223;SDS011;21367;51.930;8.112;2023-05-23T20:37:34;24.37;;;2.77;;
35223;SDS011;21367;51.930;8.112;2023-05-23T20:47:44;14.47;;;2.30;;
35223;SDS011;21367;51.930;8.112;2023-05-23T20:52:50;12.98;;;2.47;;
35223;SDS011;21367;51.930;8.112;2023-05-23T21:02:58;15.35;;;2.08;;
35223;SDS011;21367;51.930;8.112;2023-05-23T21:08:04;24.45;;;2.60;;
35223;SDS011;21367;51.930;8.112;2023-05-23T21:18:11;19.92;;;2.53;;
35223;SDS011;21367;51.930;8.112;2023-05-23T21:23:18;21.30;;;2.28;;
35223;SDS011;21367;51.930;8.112;2023-05-23T21:28:22;15.93;;;2.13;;
35223;SDS011;21367;51.930;8.112;2023-05-23T21:33:26;17.00;;;2.38;;
35223;SDS011;21367;51.930;8.112;2023-05-23T21:38:32;16.17;;;2.67;;
35223;SDS011;21367;51.930;8.112;2023-05-23T21:43:36;15.23;;;2.20;;
35223;SDS011;21367;51.930;8.112;2023-05-23T21:48:41;18.77;;;2.25;;
35223;SDS011;21367;51.930;8.112;2023-05-23T21:53:47;16.77;;;3.17;;
35223;SDS011;21367;51.930;8.112;2023-05-23T21:58:51;15.43;;;2.50;;
35223;SDS011;21367;51.930;8.112;2023-05-23T22:03:55;20.83;;;2.75;;
35223;SDS011;21367;51.930;8.112;2023-05-23T22:09:01;26.15;;;3.45;;
35223;SDS011;21367;51.930;8.112;2023-05-23T22:14:05;22.60;;;3.97;;
35223;SDS011;21367;51.930;8.112;2023-05-23T22:19:09;19.67;;;3.03;;
35223;SDS011;21367;51.930;8.112;2023-05-23T22:24:20;14.02;;;2.65;;
35223;SDS011;21367;51.930;8.112;2023-05-23T22:29:24;26.63;;;3.30;;
35223;SDS011;21367;51.930;8.112;2023-05-23T22:34:28;20.80;;;3.50;;
35223;SDS011;21367;51.930;8.112;2023-05-23T22:39:34;21.25;;;2.55;;
35223;SDS011;21367;51.930;8.112;2023-05-23T22:49:42;24.92;;;3.03;;
35223;SDS011;21367;51.930;8.112;2023-05-23T22:54:48;20.52;;;2.42;;
35223;SDS011;21367;51.930;8.112;2023-05-23T23:04:55;17.70;;;2.63;;
35223;SDS011;21367;51.930;8.112;2023-05-23T23:10:03;24.85;;;2.80;;
35223;SDS011;21367;51.930;8.112;2023-05-23T23:15:08;19.35;;;2.95;;
35223;SDS011;21367;51.930;8.112;2023-05-23T23:20:12;17.58;;;2.78;;
35223;SDS011;21367;51.930;8.112;2023-05-23T23:25:19;28.05;;;2.83;;
35223;SDS011;21367;51.930;8.112;2023-05-23T23:35:26;21.02;;;3.20;;
35223;SDS011;21367;51.930;8.112;2023-05-23T23:40:32;22.52;;;3.70;;
35223;SDS011;21367;51.930;8.112;2023-05-23T23:45:37;17.63;;;2.45;;
35223;SDS011;21367;51.930;8.112;2023-05-23T23:50:41;23.42;;;2.95;;
35223;SDS011;21367;51.930;8.112;2023-05-23T23:55:48;18.92;;;2.67;;
